sensor_id;sensor_type;location;lat;lon;timestamp;temperature;humidity
1091;DHT22;534;48.704;9.122;2022-10-14T03:02:21;16.20;83.80
1091;DHT22;534;48.704;9.122;2022-10-14T03:04:48;16.20;83.80
1091;DHT22;534;48.704;9.122;2022-10-14T03:07:14;16.20;83.80
1091;DHT22;534;48.704;9.122;2022-10-14T03:09:41;16.20;83.80
1091;DHT22;534;48.704;9.122;2022-10-14T03:12:08;16.20;83.70
1091;DHT22;534;48.704;9.122;2022-10-14T03:14:34;16.20;83.80
1091;DHT22;534;48.704;9.122;2022-10-14T03:17:01;16.10;83.80
1091;DHT22;534;48.704;9.122;2022-10-14T03:19:29;16.10;83.90
1091;DHT22;534;48.704;9.122;2022-10-14T03:21:56;16.10;83.90
1091;DHT22;534;48.704;9.122;2022-10-14T03:24:23;16.00;84.10
1091;DHT22;534;48.704;9.122;2022-10-14T03:26:49;16.00;84.20
1091;DHT22;534;48.704;9.122;2022-10-14T03:29:16;16.00;84.30
1091;DHT22;534;48.704;9.122;2022-10-14T03:31:43;16.00;84.30
1091;DHT22;534;48.704;9.122;2022-10-14T03:34:10;16.00;84.40
1091;DHT22;534;48.704;9.122;2022-10-14T03:36:38;16.00;84.30
1091;DHT22;534;48.704;9.122;2022-10-14T03:39:04;15.90;84.60
1091;DHT22;534;48.704;9.122;2022-10-14T03:41:31;15.90;84.60
1091;DHT22;534;48.704;9.122;2022-10-14T03:43:58;15.80;84.50
1091;DHT22;534;48.704;9.122;2022-10-14T03:46:24;15.80;84.90
1091;DHT22;534;48.704;9.122;2022-10-14T03:48:51;15.80;84.90
1091;DHT22;534;48.704;9.122;2022-10-14T03:51:18;15.80;85.10
1091;DHT22;534;48.704;9.122;2022-10-14T03:53:46;15.60;85.40
1091;DHT22;534;48.704;9.122;2022-10-14T03:56:13;15.60;85.50
1091;DHT22;534;48.704;9.122;2022-10-14T03:58:39;15.50;85.80
1091;DHT22;534;48.704;9.122;2022-10-14T04:01:06;15.60;85.70
1091;DHT22;534;48.704;9.122;2022-10-14T04:03:33;15.60;85.60
1091;DHT22;534;48.704;9.122;2022-10-14T04:05:59;15.30;86.70
1091;DHT22;534;48.704;9.122;2022-10-14T04:08:26;15.10;87.30
1091;DHT22;534;48.704;9.122;2022-10-14T04:10:55;15.00;88.00
1091;DHT22;534;48.704;9.122;2022-10-14T04:13:23;15.10;87.40
1091;DHT22;534;48.704;9.122;2022-10-14T04:15:50;15.30;87.10
1091;DHT22;534;48.704;9.122;2022-10-14T04:18:16;15.30;86.90
1091;DHT22;534;48.704;9.122;2022-10-14T04:20:43;15.20;87.10
1091;DHT22;534;48.704;9.122;2022-10-14T04:23:10;15.20;86.90
1091;DHT22;534;48.704;9.122;2022-10-14T04:25:37;15.30;86.90
1091;DHT22;534;48.704;9.122;2022-10-14T04:28:05;15.40;86.60
1091;DHT22;534;48.704;9.122;2022-10-14T04:30:32;15.40;86.30
1091;DHT22;534;48.704;9.122;2022-10-14T04:32:59;15.50;86.20
1091;DHT22;534;48.704;9.122;2022-10-14T04:35:25;15.50;86.10
1091;DHT22;534;48.704;9.122;2022-10-14T04:37:52;15.60;86.00
1091;DHT22;534;48.704;9.122;2022-10-14T04:40:19;15.60;85.70
1091;DHT22;534;48.704;9.122;2022-10-14T04:42:52;15.60;85.60
1091;DHT22;534;48.704;9.122;2022-10-14T04:45:21;15.70;85.40
1091;DHT22;534;48.704;9.122;2022-10-14T04:47:47;15.70;85.30
1091;DHT22;534;48.704;9.122;2022-10-14T04:50:14;15.70;85.10
1091;DHT22;534;48.704;9.122;2022-10-14T04:52:41;15.60;85.40
1091;DHT22;534;48.704;9.122;2022-10-14T04:55:08;15.60;85.40
1091;DHT22;534;48.704;9.122;2022-10-14T04:57:35;15.60;85.20
1091;DHT22;534;48.704;9.122;2022-10-14T05:00:03;15.70;85.20
1091;DHT22;534;48.704;9.122;2022-10-14T05:02:31;15.70;85.20
1091;DHT22;534;48.704;9.122;2022-10-14T05:04:58;15.70;85.00
1091;DHT22;534;48.704;9.122;2022-10-14T05:07:25;15.70;85.10
1091;DHT22;534;48.704;9.122;2022-10-14T05:09:51;15.70;84.80
1091;DHT22;534;48.704;9.122;2022-10-14T05:12:18;15.40;85.40
1091;DHT22;534;48.704;9.122;2022-10-14T05:14:45;15.20;86.20
1091;DHT22;534;48.704;9.122;2022-10-14T05:17:12;15.10;87.10
1091;DHT22;534;48.704;9.122;2022-10-14T05:19:40;15.20;86.70
1091;DHT22;534;48.704;9.122;2022-10-14T05:22:07;15.30;86.30
1091;DHT22;534;48.704;9.122;2022-10-14T05:24:33;15.40;86.10
1091;DHT22;534;48.704;9.122;2022-10-14T05:27:00;15.40;86.00
1091;DHT22;534;48.704;9.122;2022-10-14T05:29:27;15.50;85.90
1091;DHT22;534;48.704;9.122;2022-10-14T05:31:54;15.50;85.80
1091;DHT22;534;48.704;9.122;2022-10-14T05:34:21;15.60;85.70
1091;DHT22;534;48.704;9.122;2022-10-14T05:36:49;15.60;85.60
1091;DHT22;534;48.704;9.122;2022-10-14T05:39:15;15.60;85.30
1091;DHT22;534;48.704;9.122;2022-10-14T05:41:42;15.70;85.20
1091;DHT22;534;48.704;9.122;2022-10-14T05:44:09;15.70;85.20
1091;DHT22;534;48.704;9.122;2022-10-14T05:46:36;15.70;85.20
1091;DHT22;534;48.704;9.122;2022-10-14T05:49:03;15.70;85.20
1091;DHT22;534;48.704;9.122;2022-10-14T05:51:30;15.70;85.00
1091;DHT22;534;48.704;9.122;2022-10-14T05:53:58;15.70;85.00
1091;DHT22;534;48.704;9.122;2022-10-14T05:56:25;15.70;85.00
1091;DHT22;534;48.704;9.122;2022-10-14T05:58:52;15.70;85.20
1091;DHT22;534;48.704;9.122;2022-10-14T06:01:18;15.70;85.10
1091;DHT22;534;48.704;9.122;2022-10-14T06:03:48;15.70;85.10
1091;DHT22;534;48.704;9.122;2022-10-14T06:06:15;15.70;85.20
1091;DHT22;534;48.704;9.122;2022-10-14T06:08:42;15.70;85.40
1091;DHT22;534;48.704;9.122;2022-10-14T06:11:11;15.70;85.20
1091;DHT22;534;48.704;9.122;2022-10-14T06:13:38;15.70;85.40
1091;DHT22;534;48.704;9.122;2022-10-14T06:16:06;15.50;85.80
1091;DHT22;534;48.704;9.122;2022-10-14T06:18:34;15.60;85.80
1091;DHT22;534;48.704;9.122;2022-10-14T06:21:01;15.60;85.70
1091;DHT22;534;48.704;9.122;2022-10-14T06:23:28;15.70;85.70
1091;DHT22;534;48.704;9.122;2022-10-14T06:25:55;15.70;85.50
1091;DHT22;534;48.704;9.122;2022-10-14T06:28:23;15.60;85.50
1091;DHT22;534;48.704;9.122;2022-10-14T06:30:50;15.70;85.70
1091;DHT22;534;48.704;9.122;2022-10-14T06:33:16;15.50;85.70
1091;DHT22;534;48.704;9.122;2022-10-14T06:35:43;15.50;86.00
1091;DHT22;534;48.704;9.122;2022-10-14T06:38:10;15.30;86.50
1091;DHT22;534;48.704;9.122;2022-10-14T06:40:37;15.30;86.90
1091;DHT22;534;48.704;9.122;2022-10-14T06:43:04;15.30;86.90
1091;DHT22;534;48.704;9.122;2022-10-14T06:45:32;15.40;86.80
1091;DHT22;534;48.704;9.122;2022-10-14T06:47:58;15.50;86.70
1091;DHT22;534;48.704;9.122;2022-10-14T06:50:25;15.40;86.90
1091;DHT22;534;48.704;9.122;2022-10-14T06:52:52;15.20;87.40
1091;DHT22;534;48.704;9.122;2022-10-14T06:55:19;15.20;87.60
1091;DHT22;534;48.704;9.122;2022-10-14T06:57:45;15.20;87.30
1091;DHT22;534;48.704;9.122;2022-10-14T07:00:13;15.10;87.90
1091;DHT22;534;48.704;9.122;2022-10-14T07:02:41;14.90;88.80
1091;DHT22;534;48.704;9.122;2022-10-14T07:05:09;15.00;88.80
1091;DHT22;534;48.704;9.122;2022-10-14T07:07:37;15.20;88.80
1091;DHT22;534;48.704;9.122;2022-10-14T07:10:04;15.00;88.60
1091;DHT22;534;48.704;9.122;2022-10-14T07:12:30;15.10;88.70
1091;DHT22;534;48.704;9.122;2022-10-14T07:14:57;15.20;88.40
1091;DHT22;534;48.704;9.122;2022-10-14T07:17:24;15.20;87.80
1091;DHT22;534;48.704;9.122;2022-10-14T07:19:52;15.10;88.50
1091;DHT22;534;48.704;9.122;2022-10-14T07:22:19;15.20;87.90
1091;DHT22;534;48.704;9.122;2022-10-14T07:24:46;15.20;88.00
1091;DHT22;534;48.704;9.122;2022-10-14T07:27:13;15.10;88.30
1091;DHT22;534;48.704;9.122;2022-10-14T07:29:40;14.70;89.50
1091;DHT22;534;48.704;9.122;2022-10-14T07:32:07;14.80;90.30
1091;DHT22;534;48.704;9.122;2022-10-14T07:34:34;15.00;89.60
1091;DHT22;534;48.704;9.122;2022-10-14T07:37:02;15.00;89.70
1091;DHT22;534;48.704;9.122;2022-10-14T07:39:29;15.10;88.80
1091;DHT22;534;48.704;9.122;2022-10-14T07:41:55;14.80;88.70
1091;DHT22;534;48.704;9.122;2022-10-14T07:44:22;15.00;89.00
1091;DHT22;534;48.704;9.122;2022-10-14T07:46:49;15.00;89.10
1091;DHT22;534;48.704;9.122;2022-10-14T07:49:17;15.20;88.60
1091;DHT22;534;48.704;9.122;2022-10-14T07:51:45;15.30;88.00
1091;DHT22;534;48.704;9.122;2022-10-14T07:54:15;15.30;87.80
1091;DHT22;534;48.704;9.122;2022-10-14T07:56:43;15.30;87.50
1091;DHT22;534;48.704;9.122;2022-10-14T07:59:11;15.30;88.00
1091;DHT22;534;48.704;9.122;2022-10-14T08:01:37;15.50;87.40
1091;DHT22;534;48.704;9.122;2022-10-14T08:04:04;15.40;87.20
1091;DHT22;534;48.704;9.122;2022-10-14T08:06:31;15.30;87.30
1091;DHT22;534;48.704;9.122;2022-10-14T08:08:57;15.60;87.10
1091;DHT22;534;48.704;9.122;2022-10-14T08:11:27;15.80;86.60
1091;DHT22;534;48.704;9.122;2022-10-14T08:13:54;15.70;85.40
1091;DHT22;534;48.704;9.122;2022-10-14T08:16:25;15.70;85.10
1091;DHT22;534;48.704;9.122;2022-10-14T08:18:53;15.50;85.50
1091;DHT22;534;48.704;9.122;2022-10-14T08:21:20;15.20;86.70
1091;DHT22;534;48.704;9.122;2022-10-14T08:23:47;15.50;87.30
1091;DHT22;534;48.704;9.122;2022-10-14T08:26:19;15.60;86.20
1091;DHT22;534;48.704;9.122;2022-10-14T08:28:48;15.60;86.60
1091;DHT22;534;48.704;9.122;2022-10-14T08:31:15;15.80;85.80
1091;DHT22;534;48.704;9.122;2022-10-14T08:33:42;15.80;84.60
1091;DHT22;534;48.704;9.122;2022-10-14T08:36:09;15.80;84.30
1091;DHT22;534;48.704;9.122;2022-10-14T08:38:35;15.80;84.80
1091;DHT22;534;48.704;9.122;2022-10-14T08:41:09;15.90;85.30
1091;DHT22;534;48.704;9.122;2022-10-14T08:43:49;15.90;84.50
1091;DHT22;534;48.704;9.122;2022-10-14T08:46:20;15.80;84.00
1091;DHT22;534;48.704;9.122;2022-10-14T08:48:50;15.60;85.40
1091;DHT22;534;48.704;9.122;2022-10-14T08:51:21;15.60;84.90
1091;DHT22;534;48.704;9.122;2022-10-14T08:53:50;15.60;85.90
1091;DHT22;534;48.704;9.122;2022-10-14T08:56:22;15.80;85.00
1091;DHT22;534;48.704;9.122;2022-10-14T08:58:51;15.90;85.10
1091;DHT22;534;48.704;9.122;2022-10-14T09:01:23;15.60;85.70
1091;DHT22;534;48.704;9.122;2022-10-14T09:03:55;15.80;85.80
1091;DHT22;534;48.704;9.122;2022-10-14T09:06:25;15.80;84.60
1091;DHT22;534;48.704;9.122;2022-10-14T09:08:54;15.60;85.80
1091;DHT22;534;48.704;9.122;2022-10-14T09:11:22;15.90;85.30
1091;DHT22;534;48.704;9.122;2022-10-14T09:13:53;15.90;84.90
1091;DHT22;534;48.704;9.122;2022-10-14T09:16:23;15.90;84.90
1091;DHT22;534;48.704;9.122;2022-10-14T09:18:52;16.00;85.40
1091;DHT22;534;48.704;9.122;2022-10-14T09:21:28;16.00;85.30
1091;DHT22;534;48.704;9.122;2022-10-14T09:23:58;15.80;85.80
1091;DHT22;534;48.704;9.122;2022-10-14T09:26:28;16.00;85.60
1091;DHT22;534;48.704;9.122;2022-10-14T09:28:58;16.30;86.10
1091;DHT22;534;48.704;9.122;2022-10-14T09:31:24;16.50;84.30
1091;DHT22;534;48.704;9.122;2022-10-14T09:33:51;16.70;84.50
1091;DHT22;534;48.704;9.122;2022-10-14T09:36:19;16.60;84.10
1091;DHT22;534;48.704;9.122;2022-10-14T09:38:47;16.60;83.70
1091;DHT22;534;48.704;9.122;2022-10-14T09:41:17;16.60;84.30
1091;DHT22;534;48.704;9.122;2022-10-14T09:44:19;16.80;84.70
1091;DHT22;534;48.704;9.122;2022-10-14T09:46:49;16.90;83.90
1091;DHT22;534;48.704;9.122;2022-10-14T09:49:19;16.90;83.10
1091;DHT22;534;48.704;9.122;2022-10-14T09:51:48;16.80;82.40
1091;DHT22;534;48.704;9.122;2022-10-14T09:54:22;16.80;83.40
1091;DHT22;534;48.704;9.122;2022-10-14T09:56:57;16.90;83.90
1091;DHT22;534;48.704;9.122;2022-10-14T09:59:26;16.90;83.60
1091;DHT22;534;48.704;9.122;2022-10-14T10:01:55;17.10;83.00
1091;DHT22;534;48.704;9.122;2022-10-14T10:04:34;17.30;81.50
1091;DHT22;534;48.704;9.122;2022-10-14T10:07:03;17.40;81.80
1091;DHT22;534;48.704;9.122;2022-10-14T10:09:31;17.60;81.30
1091;DHT22;534;48.704;9.122;2022-10-14T10:11:58;17.50;80.10
1091;DHT22;534;48.704;9.122;2022-10-14T10:14:28;17.50;80.00
1091;DHT22;534;48.704;9.122;2022-10-14T10:17:11;17.40;79.30
1091;DHT22;534;48.704;9.122;2022-10-14T10:19:40;17.40;80.60
1091;DHT22;534;48.704;9.122;2022-10-14T10:22:23;17.30;80.00
1091;DHT22;534;48.704;9.122;2022-10-14T10:25:16;17.40;80.70
1091;DHT22;534;48.704;9.122;2022-10-14T10:27:44;17.50;80.50
1091;DHT22;534;48.704;9.122;2022-10-14T10:30:21;17.50;79.70
1091;DHT22;534;48.704;9.122;2022-10-14T10:33:08;17.60;80.00
1091;DHT22;534;48.704;9.122;2022-10-14T10:35:52;17.50;79.90
1091;DHT22;534;48.704;9.122;2022-10-14T10:38:22;17.50;80.70
1091;DHT22;534;48.704;9.122;2022-10-14T10:40:59;17.60;80.80
1091;DHT22;534;48.704;9.122;2022-10-14T10:43:46;17.60;80.80
1091;DHT22;534;48.704;9.122;2022-10-14T10:46:30;17.40;80.90
1091;DHT22;534;48.704;9.122;2022-10-14T10:49:04;17.40;81.90
1091;DHT22;534;48.704;9.122;2022-10-14T10:51:39;17.30;82.00
1091;DHT22;534;48.704;9.122;2022-10-14T10:54:11;17.40;80.90
1091;DHT22;534;48.704;9.122;2022-10-14T10:56:48;17.40;81.30
1091;DHT22;534;48.704;9.122;2022-10-14T10:59:37;17.50;81.80
1091;DHT22;534;48.704;9.122;2022-10-14T11:05:40;17.50;81.80
1091;DHT22;534;48.704;9.122;2022-10-14T11:08:20;17.40;81.10
1091;DHT22;534;48.704;9.122;2022-10-14T11:11:13;17.40;81.90
1091;DHT22;534;48.704;9.122;2022-10-14T11:14:15;17.00;82.60
1091;DHT22;534;48.704;9.122;2022-10-14T11:16:49;16.80;84.30
1091;DHT22;534;48.704;9.122;2022-10-14T11:19:23;16.70;85.10
1091;DHT22;534;48.704;9.122;2022-10-14T11:22:04;16.60;84.80
1091;DHT22;534;48.704;9.122;2022-10-14T11:24:41;16.70;86.30
1091;DHT22;534;48.704;9.122;2022-10-14T11:27:16;16.70;86.30
1091;DHT22;534;48.704;9.122;2022-10-14T11:30:08;16.80;87.30
1091;DHT22;534;48.704;9.122;2022-10-14T11:32:45;16.90;87.00
1091;DHT22;534;48.704;9.122;2022-10-14T11:35:23;17.00;86.30
1091;DHT22;534;48.704;9.122;2022-10-14T11:38:03;17.10;85.50
1091;DHT22;534;48.704;9.122;2022-10-14T11:40:37;17.00;85.60
1091;DHT22;534;48.704;9.122;2022-10-14T11:43:15;17.00;86.50
1091;DHT22;534;48.704;9.122;2022-10-14T11:45:49;17.00;85.80
1091;DHT22;534;48.704;9.122;2022-10-14T11:48:24;17.20;86.10
1091;DHT22;534;48.704;9.122;2022-10-14T11:50:56;17.30;86.50
1091;DHT22;534;48.704;9.122;2022-10-14T11:53:36;17.20;86.20
1091;DHT22;534;48.704;9.122;2022-10-14T11:56:13;17.40;85.70
1091;DHT22;534;48.704;9.122;2022-10-14T11:58:44;17.50;84.90
1091;DHT22;534;48.704;9.122;2022-10-14T12:01:13;17.50;84.90
1091;DHT22;534;48.704;9.122;2022-10-14T12:03:49;17.50;83.80
1091;DHT22;534;48.704;9.122;2022-10-14T12:06:21;17.50;84.40
1091;DHT22;534;48.704;9.122;2022-10-14T12:08:55;17.60;84.20
1091;DHT22;534;48.704;9.122;2022-10-14T12:11:27;17.60;84.60
1091;DHT22;534;48.704;9.122;2022-10-14T12:14:02;17.80;83.30
1091;DHT22;534;48.704;9.122;2022-10-14T12:16:31;17.70;83.00
1091;DHT22;534;48.704;9.122;2022-10-14T12:18:59;17.80;82.90
1091;DHT22;534;48.704;9.122;2022-10-14T12:21:31;17.90;83.00
1091;DHT22;534;48.704;9.122;2022-10-14T12:24:03;18.00;82.00
1091;DHT22;534;48.704;9.122;2022-10-14T12:26:45;18.10;81.50
1091;DHT22;534;48.704;9.122;2022-10-14T12:29:16;18.10;82.00
1091;DHT22;534;48.704;9.122;2022-10-14T12:31:48;18.10;81.80
1091;DHT22;534;48.704;9.122;2022-10-14T12:34:31;18.10;80.90
1091;DHT22;534;48.704;9.122;2022-10-14T12:36:59;18.10;81.30
1091;DHT22;534;48.704;9.122;2022-10-14T12:39:41;18.00;81.70
1091;DHT22;534;48.704;9.122;2022-10-14T12:42:10;17.90;81.30
1091;DHT22;534;48.704;9.122;2022-10-14T12:44:43;17.90;82.10
1091;DHT22;534;48.704;9.122;2022-10-14T12:47:17;18.00;82.00
1091;DHT22;534;48.704;9.122;2022-10-14T12:49:47;17.80;82.30
1091;DHT22;534;48.704;9.122;2022-10-14T12:52:20;17.80;83.00
1091;DHT22;534;48.704;9.122;2022-10-14T12:54:50;17.90;82.40
1091;DHT22;534;48.704;9.122;2022-10-14T12:57:25;17.90;82.00
1091;DHT22;534;48.704;9.122;2022-10-14T12:59:54;18.00;82.80
1091;DHT22;534;48.704;9.122;2022-10-14T13:02:28;18.00;82.60
1091;DHT22;534;48.704;9.122;2022-10-14T13:04:59;18.10;82.60
1091;DHT22;534;48.704;9.122;2022-10-14T13:10:41;18.10;81.60
1091;DHT22;534;48.704;9.122;2022-10-14T13:19:41;17.90;81.10
1091;DHT22;534;48.704;9.122;2022-10-14T13:22:41;18.00;81.40
1091;DHT22;534;48.704;9.122;2022-10-14T13:25:19;18.00;81.60
1091;DHT22;534;48.704;9.122;2022-10-14T13:30:36;18.00;80.60
1091;DHT22;534;48.704;9.122;2022-10-14T13:33:14;18.10;81.40
1091;DHT22;534;48.704;9.122;2022-10-14T13:35:50;18.00;80.90
1091;DHT22;534;48.704;9.122;2022-10-14T13:38:20;17.90;81.00
1091;DHT22;534;48.704;9.122;2022-10-14T13:40:50;17.90;81.00
1091;DHT22;534;48.704;9.122;2022-10-14T13:43:21;17.90;81.70
1091;DHT22;534;48.704;9.122;2022-10-14T13:45:53;18.10;81.10
1091;DHT22;534;48.704;9.122;2022-10-14T13:48:28;18.10;81.00
1091;DHT22;534;48.704;9.122;2022-10-14T13:51:06;18.10;80.70
1091;DHT22;534;48.704;9.122;2022-10-14T13:53:48;18.20;80.50
1091;DHT22;534;48.704;9.122;2022-10-14T13:56:20;18.30;80.70
1091;DHT22;534;48.704;9.122;2022-10-14T13:58:48;18.30;80.40
1091;DHT22;534;48.704;9.122;2022-10-14T14:01:17;18.20;81.50
1091;DHT22;534;48.704;9.122;2022-10-14T14:03:48;18.10;80.90
1091;DHT22;534;48.704;9.122;2022-10-14T14:06:18;18.10;82.00
1091;DHT22;534;48.704;9.122;2022-10-14T14:08:47;18.00;81.20
1091;DHT22;534;48.704;9.122;2022-10-14T14:11:19;18.00;81.90
1091;DHT22;534;48.704;9.122;2022-10-14T14:13:55;18.10;81.70
1091;DHT22;534;48.704;9.122;2022-10-14T14:16:25;18.00;81.40
1091;DHT22;534;48.704;9.122;2022-10-14T14:18:53;18.00;82.70
1091;DHT22;534;48.704;9.122;2022-10-14T14:21:21;18.00;82.90
1091;DHT22;534;48.704;9.122;2022-10-14T14:23:49;18.00;82.50
1091;DHT22;534;48.704;9.122;2022-10-14T14:26:16;17.90;81.80
1091;DHT22;534;48.704;9.122;2022-10-14T14:28:45;17.90;82.40
1091;DHT22;534;48.704;9.122;2022-10-14T14:34:29;17.80;83.00
1091;DHT22;534;48.704;9.122;2022-10-14T14:36:58;17.80;82.80
1091;DHT22;534;48.704;9.122;2022-10-14T14:39:27;17.70;83.00
1091;DHT22;534;48.704;9.122;2022-10-14T14:41:56;17.70;83.30
1091;DHT22;534;48.704;9.122;2022-10-14T14:44:26;17.80;83.60
1091;DHT22;534;48.704;9.122;2022-10-14T14:46:56;17.90;82.40
1091;DHT22;534;48.704;9.122;2022-10-14T14:49:26;18.00;82.50
1091;DHT22;534;48.704;9.122;2022-10-14T14:51:55;17.90;81.80
1091;DHT22;534;48.704;9.122;2022-10-14T14:54:23;17.70;82.60
1091;DHT22;534;48.704;9.122;2022-10-14T14:56:53;17.60;82.90
1091;DHT22;534;48.704;9.122;2022-10-14T14:59:27;17.50;83.50
1091;DHT22;534;48.704;9.122;2022-10-14T15:01:55;17.50;84.00
1091;DHT22;534;48.704;9.122;2022-10-14T15:04:24;17.40;84.20
1091;DHT22;534;48.704;9.122;2022-10-14T15:06:58;17.40;84.60
1091;DHT22;534;48.704;9.122;2022-10-14T15:09:33;17.30;85.40
1091;DHT22;534;48.704;9.122;2022-10-14T15:12:03;17.20;85.90
1091;DHT22;534;48.704;9.122;2022-10-14T15:14:33;17.20;86.20
1091;DHT22;534;48.704;9.122;2022-10-14T15:17:01;17.10;86.60
1091;DHT22;534;48.704;9.122;2022-10-14T15:19:33;17.20;86.70
1091;DHT22;534;48.704;9.122;2022-10-14T15:22:34;17.10;87.00
1091;DHT22;534;48.704;9.122;2022-10-14T15:25:04;17.10;87.10
1091;DHT22;534;48.704;9.122;2022-10-14T15:27:42;17.10;87.20
1091;DHT22;534;48.704;9.122;2022-10-14T15:30:22;17.00;87.20
1091;DHT22;534;48.704;9.122;2022-10-14T15:32:53;17.00;88.00
1091;DHT22;534;48.704;9.122;2022-10-14T15:35:22;16.90;88.50
1091;DHT22;534;48.704;9.122;2022-10-14T15:37:50;16.90;88.80
1091;DHT22;534;48.704;9.122;2022-10-14T15:40:20;16.90;89.00
1091;DHT22;534;48.704;9.122;2022-10-14T15:42:47;17.00;88.80
1091;DHT22;534;48.704;9.122;2022-10-14T15:45:15;16.90;89.10
1091;DHT22;534;48.704;9.122;2022-10-14T15:47:42;16.80;89.50
1091;DHT22;534;48.704;9.122;2022-10-14T15:50:14;16.70;90.50
1091;DHT22;534;48.704;9.122;2022-10-14T15:52:41;16.70;90.80
1091;DHT22;534;48.704;9.122;2022-10-14T15:55:16;16.90;90.30
1091;DHT22;534;48.704;9.122;2022-10-14T15:57:44;16.90;89.80
1091;DHT22;534;48.704;9.122;2022-10-14T16:00:12;16.80;90.40
1091;DHT22;534;48.704;9.122;2022-10-14T16:02:40;16.70;90.80
1091;DHT22;534;48.704;9.122;2022-10-14T16:05:09;16.80;90.20
1091;DHT22;534;48.704;9.122;2022-10-14T16:07:36;16.80;90.30
1091;DHT22;534;48.704;9.122;2022-10-14T16:10:03;16.80;90.50
1091;DHT22;534;48.704;9.122;2022-10-14T16:12:31;16.90;90.40
1091;DHT22;534;48.704;9.122;2022-10-14T16:14:58;16.80;89.90
1091;DHT22;534;48.704;9.122;2022-10-14T16:17:26;16.80;90.00
1091;DHT22;534;48.704;9.122;2022-10-14T16:19:53;16.60;90.40
1091;DHT22;534;48.704;9.122;2022-10-14T16:22:19;16.40;90.80
1091;DHT22;534;48.704;9.122;2022-10-14T16:24:46;16.50;91.00
1091;DHT22;534;48.704;9.122;2022-10-14T16:27:13;16.40;91.20
1091;DHT22;534;48.704;9.122;2022-10-14T16:29:41;16.50;90.80
1091;DHT22;534;48.704;9.122;2022-10-14T16:32:08;16.40;90.20
1091;DHT22;534;48.704;9.122;2022-10-14T16:34:35;16.30;90.80
1091;DHT22;534;48.704;9.122;2022-10-14T16:37:01;16.40;90.90
1091;DHT22;534;48.704;9.122;2022-10-14T16:39:28;16.50;90.50
1091;DHT22;534;48.704;9.122;2022-10-14T16:41:55;16.50;90.40
1091;DHT22;534;48.704;9.122;2022-10-14T16:44:22;16.60;90.40
1091;DHT22;534;48.704;9.122;2022-10-14T16:46:55;16.70;89.90
1091;DHT22;534;48.704;9.122;2022-10-14T16:49:39;16.80;89.30
1091;DHT22;534;48.704;9.122;2022-10-14T16:52:06;16.70;89.50
1091;DHT22;534;48.704;9.122;2022-10-14T16:54:33;16.70;89.90
1091;DHT22;534;48.704;9.122;2022-10-14T16:57:00;16.50;90.20
1091;DHT22;534;48.704;9.122;2022-10-14T16:59:27;16.60;90.10
1091;DHT22;534;48.704;9.122;2022-10-14T17:01:56;16.30;91.90
1091;DHT22;534;48.704;9.122;2022-10-14T17:04:23;16.30;91.50
1091;DHT22;534;48.704;9.122;2022-10-14T17:06:51;16.20;91.20
1091;DHT22;534;48.704;9.122;2022-10-14T17:09:18;16.40;90.70
1091;DHT22;534;48.704;9.122;2022-10-14T17:11:45;16.20;91.00
1091;DHT22;534;48.704;9.122;2022-10-14T17:14:15;16.30;91.30
1091;DHT22;534;48.704;9.122;2022-10-14T17:16:42;16.30;90.50
1091;DHT22;534;48.704;9.122;2022-10-14T17:19:11;16.40;90.50
1091;DHT22;534;48.704;9.122;2022-10-14T17:21:38;16.30;90.10
1091;DHT22;534;48.704;9.122;2022-10-14T17:24:05;16.40;90.70
1091;DHT22;534;48.704;9.122;2022-10-14T17:26:33;16.50;89.90
1091;DHT22;534;48.704;9.122;2022-10-14T17:29:00;16.60;90.00
1091;DHT22;534;48.704;9.122;2022-10-14T17:31:27;16.50;89.10
1091;DHT22;534;48.704;9.122;2022-10-14T17:33:54;16.70;89.30
1091;DHT22;534;48.704;9.122;2022-10-14T17:36:24;16.70;88.50
1091;DHT22;534;48.704;9.122;2022-10-14T17:38:53;16.70;88.40
1091;DHT22;534;48.704;9.122;2022-10-14T17:41:23;16.80;88.30
1091;DHT22;534;48.704;9.122;2022-10-14T17:43:50;16.80;88.30
1091;DHT22;534;48.704;9.122;2022-10-14T17:46:18;16.80;87.90
1091;DHT22;534;48.704;9.122;2022-10-14T17:48:48;16.90;88.00
1091;DHT22;534;48.704;9.122;2022-10-14T17:51:16;16.90;87.50
1091;DHT22;534;48.704;9.122;2022-10-14T17:53:46;17.10;87.50
1091;DHT22;534;48.704;9.122;2022-10-14T17:56:12;17.10;87.30
1091;DHT22;534;48.704;9.122;2022-10-14T17:58:39;17.10;87.20
1091;DHT22;534;48.704;9.122;2022-10-14T18:01:08;17.10;87.30
1091;DHT22;534;48.704;9.122;2022-10-14T18:03:36;17.20;87.10
1091;DHT22;534;48.704;9.122;2022-10-14T18:06:10;17.30;87.10
1091;DHT22;534;48.704;9.122;2022-10-14T18:08:38;17.20;87.20
1091;DHT22;534;48.704;9.122;2022-10-14T18:11:06;17.00;87.50
1091;DHT22;534;48.704;9.122;2022-10-14T18:13:34;17.00;88.20
1091;DHT22;534;48.704;9.122;2022-10-14T18:16:02;17.20;87.90
1091;DHT22;534;48.704;9.122;2022-10-14T18:18:29;17.20;87.60
1091;DHT22;534;48.704;9.122;2022-10-14T18:20:56;17.00;88.50
1091;DHT22;534;48.704;9.122;2022-10-14T18:23:25;16.70;89.60
1091;DHT22;534;48.704;9.122;2022-10-14T18:25:52;16.80;89.60
1091;DHT22;534;48.704;9.122;2022-10-14T18:28:21;16.90;89.60
1091;DHT22;534;48.704;9.122;2022-10-14T18:30:47;16.90;89.10
1091;DHT22;534;48.704;9.122;2022-10-14T18:33:14;16.90;89.50
1091;DHT22;534;48.704;9.122;2022-10-14T18:35:41;16.60;90.60
1091;DHT22;534;48.704;9.122;2022-10-14T18:38:08;16.40;91.10
1091;DHT22;534;48.704;9.122;2022-10-14T18:40:35;16.20;91.80
1091;DHT22;534;48.704;9.122;2022-10-14T18:43:02;16.30;91.40
1091;DHT22;534;48.704;9.122;2022-10-14T18:45:33;15.90;91.40
1091;DHT22;534;48.704;9.122;2022-10-14T18:48:00;15.70;92.50
1091;DHT22;534;48.704;9.122;2022-10-14T18:50:27;15.70;92.60
1091;DHT22;534;48.704;9.122;2022-10-14T18:52:54;15.40;92.90
1091;DHT22;534;48.704;9.122;2022-10-14T18:55:21;15.30;93.30
1091;DHT22;534;48.704;9.122;2022-10-14T18:57:48;15.30;93.90
1091;DHT22;534;48.704;9.122;2022-10-14T19:00:15;15.20;93.60
1091;DHT22;534;48.704;9.122;2022-10-14T19:02:44;15.10;94.00
1091;DHT22;534;48.704;9.122;2022-10-14T19:05:10;15.20;93.90
1091;DHT22;534;48.704;9.122;2022-10-14T19:07:37;15.20;93.30
1091;DHT22;534;48.704;9.122;2022-10-14T19:10:04;15.20;93.70
1091;DHT22;534;48.704;9.122;2022-10-14T19:12:31;15.20;93.40
1091;DHT22;534;48.704;9.122;2022-10-14T19:15:08;15.00;93.80
1091;DHT22;534;48.704;9.122;2022-10-14T19:17:35;15.00;93.60
1091;DHT22;534;48.704;9.122;2022-10-14T19:20:04;15.00;93.90
1091;DHT22;534;48.704;9.122;2022-10-14T19:22:33;15.00;94.00
1091;DHT22;534;48.704;9.122;2022-10-14T19:25:02;15.00;93.60
1091;DHT22;534;48.704;9.122;2022-10-14T19:27:29;15.10;93.70
1091;DHT22;534;48.704;9.122;2022-10-14T19:29:56;15.00;93.60
1091;DHT22;534;48.704;9.122;2022-10-14T19:32:22;15.10;93.00
1091;DHT22;534;48.704;9.122;2022-10-14T19:34:49;14.90;93.10
1091;DHT22;534;48.704;9.122;2022-10-14T19:37:17;14.80;93.50
1091;DHT22;534;48.704;9.122;2022-10-14T19:39:44;14.70;93.70
1091;DHT22;534;48.704;9.122;2022-10-14T19:42:10;14.50;95.10
1091;DHT22;534;48.704;9.122;2022-10-14T19:44:37;14.60;94.40
1091;DHT22;534;48.704;9.122;2022-10-14T19:47:04;14.60;94.40
1091;DHT22;534;48.704;9.122;2022-10-14T19:49:30;14.60;94.00
1091;DHT22;534;48.704;9.122;2022-10-14T19:51:57;14.50;94.50
1091;DHT22;534;48.704;9.122;2022-10-14T19:54:25;14.60;94.80